createdAt,value
2022-08-20T00:02:16.719Z,22.19
2022-08-20T00:04:46.367Z,22.23
2022-08-20T00:07:16.643Z,22.37
2022-08-20T00:09:44.531Z,22.40
2022-08-20T00:12:13.701Z,22.32
2022-08-20T00:14:43.173Z,22.19
2022-08-20T00:17:12.130Z,22.27
2022-08-20T00:19:39.018Z,22.27
2022-08-20T00:22:06.105Z,22.29
2022-08-20T00:24:33.026Z,22.23
2022-08-20T00:27:02.703Z,22.21
2022-08-20T00:29:31.795Z,22.17
2022-08-20T00:32:01.408Z,22.07
2022-08-20T00:34:28.972Z,22.02
2022-08-20T00:36:55.868Z,22.05
2022-08-20T00:39:22.858Z,21.93
2022-08-20T00:41:51.950Z,22.00
2022-08-20T00:44:22.834Z,22.07
2022-08-20T00:46:53.550Z,22.13
2022-08-20T00:49:33.555Z,22.10
2022-08-20T00:52:22.041Z,22.08
2022-08-20T00:54:59.396Z,22.06
2022-08-20T00:57:58.917Z,22.05
2022-08-20T01:00:38.287Z,21.98
2022-08-20T01:03:16.513Z,21.99
2022-08-20T01:05:51.346Z,21.99
2022-08-20T01:08:24.626Z,21.89
2022-08-20T01:11:14.349Z,21.84
2022-08-20T01:13:46.569Z,21.79
2022-08-20T01:16:26.647Z,21.76
2022-08-20T01:18:57.674Z,21.77
2022-08-20T01:21:28.831Z,21.67
2022-08-20T01:24:22.644Z,21.49
2022-08-20T01:26:50.101Z,21.59
2022-08-20T01:29:28.662Z,21.49
2022-08-20T01:32:01.251Z,21.53
2022-08-20T01:34:30.789Z,21.57
2022-08-20T01:36:59.320Z,21.55
2022-08-20T01:39:36.414Z,21.57
2022-08-20T01:42:15.379Z,21.55
2022-08-20T01:44:50.036Z,21.47
2022-08-20T01:47:27.019Z,21.53
2022-08-20T01:49:59.961Z,21.49
2022-08-20T01:52:33.257Z,21.52
2022-08-20T01:55:00.203Z,21.60
2022-08-20T01:57:32.207Z,21.58
2022-08-20T02:00:07.194Z,21.42
2022-08-20T02:02:36.231Z,21.65
2022-08-20T02:05:06.213Z,21.73
2022-08-20T02:07:37.673Z,21.68
2022-08-20T02:10:10.925Z,21.80
2022-08-20T02:12:39.861Z,21.84
2022-08-20T02:15:10.399Z,21.95
2022-08-20T02:17:39.235Z,21.89
2022-08-20T02:20:37.913Z,21.94
2022-08-20T02:23:06.071Z,21.77
2022-08-20T02:25:36.635Z,21.78
2022-08-20T02:28:09.238Z,21.78
2022-08-20T02:30:46.972Z,21.67
2022-08-20T02:33:19.635Z,21.78
2022-08-20T02:35:52.233Z,21.92
2022-08-20T02:38:22.772Z,21.90
2022-08-20T02:40:49.996Z,21.90
2022-08-20T02:43:20.093Z,21.84
2022-08-20T02:45:49.409Z,21.61
2022-08-20T02:48:23.336Z,21.26
2022-08-20T02:50:58.385Z,21.24
2022-08-20T02:53:36.750Z,21.48
2022-08-20T02:56:08.516Z,21.77
2022-08-20T02:58:36.117Z,21.74
2022-08-20T03:01:06.331Z,21.81
2022-08-20T03:03:33.781Z,21.85
2022-08-20T03:06:06.650Z,21.95
2022-08-20T03:08:34.209Z,21.77
2022-08-20T03:11:01.061Z,22.00
2022-08-20T03:13:28.001Z,22.09
2022-08-20T03:16:00.790Z,22.13
2022-08-20T03:18:34.414Z,22.03
2022-08-20T03:21:05.677Z,22.21
2022-08-20T03:23:36.664Z,22.30
2022-08-20T03:26:12.948Z,22.27
2022-08-20T03:28:41.109Z,22.14
2022-08-20T03:31:08.393Z,22.19
2022-08-20T03:33:39.428Z,22.13
2022-08-20T03:36:22.104Z,22.15
2022-08-20T03:38:59.152Z,22.10
2022-08-20T03:41:28.998Z,22.12
2022-08-20T03:44:01.127Z,22.07
2022-08-20T03:46:28.780Z,22.16
2022-08-20T03:48:59.541Z,22.22
2022-08-20T03:51:31.069Z,22.31
2022-08-20T03:53:58.552Z,22.36
2022-08-20T03:56:31.681Z,22.50
2022-08-20T03:59:03.540Z,22.40
2022-08-20T04:01:44.477Z,22.33
2022-08-20T04:04:15.545Z,22.12
2022-08-20T04:06:43.626Z,22.12
2022-08-20T04:09:13.773Z,22.10
2022-08-20T04:11:42.378Z,22.34
2022-08-20T04:14:19.525Z,22.41
2022-08-20T04:16:47.584Z,22.57
2022-08-20T04:19:16.496Z,22.63
2022-08-20T04:21:48.600Z,22.37
2022-08-20T04:24:22.614Z,22.45
2022-08-20T04:26:59.850Z,22.48
2022-08-20T04:29:32.297Z,22.47
2022-08-20T04:32:02.767Z,22.32
2022-08-20T04:34:33.718Z,22.38
2022-08-20T04:37:00.734Z,22.50
2022-08-20T04:39:32.279Z,22.46
2022-08-20T04:42:03.849Z,22.56
2022-08-20T04:44:30.712Z,22.51
2022-08-20T04:46:59.771Z,22.46
2022-08-20T04:49:29.163Z,22.52
2022-08-20T04:51:59.489Z,22.48
2022-08-20T04:54:26.486Z,22.43
2022-08-20T04:56:53.408Z,22.38
2022-08-20T04:59:20.265Z,22.56
2022-08-20T05:01:49.672Z,22.53
2022-08-20T05:04:16.622Z,22.58
2022-08-20T05:06:43.516Z,22.69
2022-08-20T05:09:10.371Z,22.83
2022-08-20T05:11:37.334Z,22.77
2022-08-20T05:14:08.968Z,22.79
2022-08-20T05:16:40.932Z,22.78
2022-08-20T05:19:12.242Z,22.81
2022-08-20T05:21:40.281Z,22.80
2022-08-20T05:24:10.165Z,22.86
2022-08-20T05:26:37.172Z,22.87
2022-08-20T05:29:07.558Z,22.87
2022-08-20T05:31:35.171Z,22.79
2022-08-20T05:34:09.578Z,22.91
2022-08-20T05:36:49.068Z,22.93
2022-08-20T05:39:18.404Z,22.98
2022-08-20T05:41:45.683Z,23.00
2022-08-20T05:44:14.227Z,23.14
2022-08-20T05:46:43.879Z,23.14
2022-08-20T05:49:15.597Z,23.09
2022-08-20T05:51:43.859Z,23.07
2022-08-20T05:54:11.340Z,22.97
2022-08-20T05:56:41.381Z,23.02
2022-08-20T05:59:13.985Z,23.09
2022-08-20T06:01:46.650Z,22.85
2022-08-20T06:04:24.912Z,23.05
2022-08-20T06:07:04.205Z,23.23
2022-08-20T06:09:32.781Z,23.28
2022-08-20T06:12:07.716Z,23.23
2022-08-20T06:14:35.427Z,23.19
2022-08-20T06:17:15.363Z,23.32
2022-08-20T06:19:44.729Z,23.24
2022-08-20T06:22:19.571Z,23.09
2022-08-20T06:24:55.715Z,23.29
2022-08-20T06:27:26.132Z,23.27
2022-08-20T06:29:56.027Z,23.35
2022-08-20T06:32:28.773Z,23.30
2022-08-20T06:35:02.170Z,23.42
2022-08-20T06:37:36.546Z,23.30
2022-08-20T06:40:10.235Z,23.34
2022-08-20T06:42:47.771Z,23.31
2022-08-20T06:45:19.178Z,23.38
2022-08-20T06:47:47.606Z,23.45
2022-08-20T06:50:20.346Z,23.64
2022-08-20T06:52:51.877Z,23.71
2022-08-20T06:55:26.228Z,23.75
2022-08-20T06:58:35.792Z,23.63
2022-08-20T07:01:09.096Z,23.92
2022-08-20T07:03:38.310Z,23.93
2022-08-20T07:06:08.390Z,23.77
2022-08-20T07:08:38.288Z,23.97
2022-08-20T07:11:07.158Z,24.07
2022-08-20T07:13:40.925Z,24.24
2022-08-20T07:16:10.236Z,24.08
2022-08-20T07:18:41.811Z,23.92
2022-08-20T07:21:12.166Z,24.25
2022-08-20T07:23:39.048Z,24.42
2022-08-20T07:26:08.097Z,24.51
2022-08-20T07:28:34.966Z,24.28
2022-08-20T07:31:20.517Z,24.50
2022-08-20T07:33:50.214Z,24.64
2022-08-20T07:36:20.342Z,24.82
2022-08-20T07:38:52.628Z,25.04
2022-08-20T07:41:20.866Z,25.32
2022-08-20T07:43:52.407Z,25.35
2022-08-20T07:46:23.769Z,25.28
2022-08-20T07:49:00.360Z,25.39
2022-08-20T07:51:32.806Z,25.58
2022-08-20T07:54:02.047Z,25.78
2022-08-20T07:56:29.549Z,25.83
2022-08-20T07:59:01.546Z,25.67
2022-08-20T08:01:31.299Z,25.89
2022-08-20T08:03:59.700Z,25.96
2022-08-20T08:06:31.023Z,25.90
2022-08-20T08:09:08.716Z,25.78
2022-08-20T08:11:39.772Z,26.02
2022-08-20T08:14:11.562Z,26.25
2022-08-20T08:16:45.343Z,26.44
2022-08-20T08:19:15.020Z,26.65
2022-08-20T08:21:43.492Z,26.85
2022-08-20T08:24:12.680Z,26.96
2022-08-20T08:26:41.322Z,27.21
2022-08-20T08:29:08.208Z,26.94
2022-08-20T08:31:35.408Z,26.85
2022-08-20T08:34:02.357Z,26.93
2022-08-20T08:36:29.262Z,26.99
2022-08-20T08:38:56.622Z,27.25
2022-08-20T08:41:57.285Z,27.82
2022-08-20T08:44:36.008Z,28.13
2022-08-20T08:47:18.501Z,28.33
2022-08-20T08:49:47.570Z,28.72
2022-08-20T08:52:34.439Z,28.54
2022-08-20T08:55:06.443Z,28.54
2022-08-20T08:57:34.286Z,28.51
2022-08-20T09:00:17.262Z,28.52
2022-08-20T09:03:04.507Z,28.36
2022-08-20T09:05:51.384Z,28.17
2022-08-20T09:08:25.667Z,28.61
2022-08-20T09:10:52.576Z,28.63
2022-08-20T09:13:22.327Z,28.97
2022-08-20T09:15:52.207Z,28.78
2022-08-20T09:18:21.534Z,28.85
2022-08-20T09:20:50.569Z,28.74
2022-08-20T09:23:22.237Z,28.81
2022-08-20T09:25:49.441Z,29.11
2022-08-20T09:28:16.289Z,29.85
2022-08-20T09:30:46.036Z,30.27
2022-08-20T09:33:13.860Z,30.68
2022-08-20T09:35:44.825Z,30.96
2022-08-20T09:38:16.272Z,30.40
2022-08-20T09:40:44.466Z,30.74
2022-08-20T09:43:16.482Z,30.47
2022-08-20T09:45:43.400Z,30.01
2022-08-20T09:48:10.666Z,29.82
2022-08-20T09:50:44.153Z,29.18
2022-08-20T09:53:11.764Z,29.30
2022-08-20T09:55:42.726Z,29.15
2022-08-20T09:58:53.510Z,28.99
2022-08-20T10:01:25.028Z,29.16
2022-08-20T10:03:51.962Z,28.95
2022-08-20T10:06:22.479Z,29.05
2022-08-20T10:08:52.955Z,29.10
2022-08-20T10:11:19.928Z,28.98
2022-08-20T10:13:49.891Z,29.16
2022-08-20T10:16:16.734Z,29.29
2022-08-20T10:18:43.595Z,29.32
2022-08-20T10:21:12.046Z,29.00
2022-08-20T10:23:38.976Z,28.89
2022-08-20T10:26:10.103Z,29.08
2022-08-20T10:28:37.707Z,29.22
2022-08-20T10:31:12.178Z,29.17
2022-08-20T10:33:41.121Z,29.13
2022-08-20T10:36:17.360Z,29.25
2022-08-20T10:38:48.481Z,29.48
2022-08-20T10:41:17.939Z,29.69
2022-08-20T10:43:47.645Z,29.18
2022-08-20T10:46:17.114Z,29.47
2022-08-20T10:48:44.329Z,29.73
2022-08-20T10:51:11.247Z,29.60
2022-08-20T10:53:38.964Z,29.74
2022-08-20T10:56:06.103Z,29.78
2022-08-20T10:58:39.622Z,29.68
2022-08-20T11:01:09.955Z,29.79
2022-08-20T11:03:36.913Z,29.44
2022-08-20T11:06:06.944Z,29.44
2022-08-20T11:08:36.394Z,29.58
2022-08-20T11:11:06.860Z,29.32
2022-08-20T11:13:37.078Z,29.59
2022-08-20T11:16:07.656Z,29.98
2022-08-20T11:18:37.028Z,30.21
2022-08-20T11:21:04.068Z,30.72
2022-08-20T11:23:33.947Z,31.09
2022-08-20T11:26:00.939Z,30.97
2022-08-20T11:28:32.380Z,31.22
2022-08-20T11:31:00.939Z,31.25
2022-08-20T11:33:28.119Z,31.00
2022-08-20T11:35:55.052Z,31.05
2022-08-20T11:38:21.968Z,30.51
2022-08-20T11:40:53.417Z,30.77
2022-08-20T11:43:20.423Z,31.01
2022-08-20T11:45:52.841Z,31.39
2022-08-20T11:48:20.202Z,31.35
2022-08-20T11:50:48.625Z,31.58
2022-08-20T11:53:17.823Z,31.39
2022-08-20T11:55:45.293Z,31.35
2022-08-20T11:58:14.901Z,31.16
2022-08-20T12:00:44.020Z,30.87
2022-08-20T12:03:13.883Z,31.01
2022-08-20T12:05:46.093Z,31.01
2022-08-20T12:08:26.442Z,30.94
2022-08-20T12:11:04.136Z,30.98
2022-08-20T12:13:47.765Z,30.75
2022-08-20T12:16:21.282Z,30.64
2022-08-20T12:18:48.767Z,30.45
2022-08-20T12:21:20.382Z,30.31
2022-08-20T12:23:48.127Z,30.40
2022-08-20T12:26:17.917Z,30.87
2022-08-20T12:28:44.759Z,30.83
2022-08-20T12:31:11.640Z,30.60
2022-08-20T12:33:40.633Z,30.75
2022-08-20T12:36:07.960Z,30.94
2022-08-20T12:38:35.242Z,31.07
2022-08-20T12:41:02.613Z,31.17
2022-08-20T12:43:29.614Z,31.09
2022-08-20T12:45:56.493Z,31.03
2022-08-20T12:48:23.337Z,30.80
2022-08-20T12:50:54.928Z,30.72
2022-08-20T12:53:24.804Z,30.72
2022-08-20T12:55:51.712Z,30.83
2022-08-20T12:58:19.384Z,30.80
2022-08-20T13:00:50.701Z,30.65
2022-08-20T13:03:20.228Z,30.60
2022-08-20T13:05:48.565Z,30.58
2022-08-20T13:08:17.574Z,30.52
2022-08-20T13:10:47.345Z,30.46
2022-08-20T13:13:19.924Z,30.70
2022-08-20T13:15:49.068Z,30.86
2022-08-20T13:18:18.195Z,30.88
2022-08-20T13:20:48.227Z,31.47
2022-08-20T13:23:20.221Z,31.15
2022-08-20T13:25:47.279Z,31.35
2022-08-20T13:28:16.387Z,31.40
2022-08-20T13:30:43.324Z,31.26
2022-08-20T13:33:12.516Z,31.06
2022-08-20T13:35:41.660Z,31.31
2022-08-20T13:38:10.958Z,31.56
2022-08-20T13:40:38.010Z,31.19
2022-08-20T13:43:07.755Z,31.24
2022-08-20T13:45:40.769Z,31.44
2022-08-20T13:48:10.034Z,31.37
2022-08-20T13:50:42.848Z,31.80
2022-08-20T13:53:09.717Z,32.25
2022-08-20T13:55:39.578Z,32.28
2022-08-20T13:58:10.239Z,32.29
2022-08-20T14:00:37.897Z,32.16
2022-08-20T14:03:08.788Z,31.63
2022-08-20T14:05:36.633Z,31.80
2022-08-20T14:08:22.767Z,31.55
2022-08-20T14:10:52.764Z,31.57
2022-08-20T14:13:27.707Z,31.35
2022-08-20T14:15:56.467Z,31.55
2022-08-20T14:18:26.030Z,31.16
2022-08-20T14:20:52.992Z,31.37
2022-08-20T14:23:22.290Z,31.20
2022-08-20T14:25:52.885Z,31.25
2022-08-20T14:28:23.728Z,31.02
2022-08-20T14:30:52.821Z,31.10
2022-08-20T14:33:22.061Z,30.76
2022-08-20T14:35:52.461Z,30.98
2022-08-20T14:38:19.551Z,30.84
2022-08-20T14:40:47.334Z,30.57
2022-08-20T14:43:14.227Z,30.62
2022-08-20T14:45:41.139Z,30.60
2022-08-20T14:48:11.043Z,30.88
2022-08-20T14:50:39.090Z,30.69
2022-08-20T14:53:06.629Z,30.99
2022-08-20T14:55:37.536Z,30.91
2022-08-20T14:58:12.565Z,30.66
2022-08-20T15:00:39.944Z,30.78
2022-08-20T15:03:09.123Z,30.59
2022-08-20T15:05:39.162Z,30.51
2022-08-20T15:08:07.604Z,30.39
2022-08-20T15:10:39.694Z,30.23
2022-08-20T15:13:07.248Z,30.03
2022-08-20T15:15:35.013Z,30.08
2022-08-20T15:18:04.456Z,30.11
2022-08-20T15:20:34.099Z,30.33
2022-08-20T15:23:01.965Z,30.38
2022-08-20T15:25:36.581Z,30.22
2022-08-20T15:28:11.611Z,30.16
2022-08-20T15:30:42.344Z,29.98
2022-08-20T15:33:13.531Z,29.82
2022-08-20T15:35:40.644Z,29.96
2022-08-20T15:38:13.130Z,29.84
2022-08-20T15:40:40.271Z,29.68
2022-08-20T15:43:07.551Z,29.06
2022-08-20T15:45:38.158Z,29.21
2022-08-20T15:48:19.189Z,29.17
2022-08-20T15:51:28.263Z,29.32
2022-08-20T15:54:08.478Z,29.17
2022-08-20T15:56:51.857Z,29.12
2022-08-20T15:59:47.152Z,29.30
2022-08-20T16:02:50.925Z,28.50
2022-08-20T16:05:44.995Z,28.57
2022-08-20T16:08:33.200Z,28.61
2022-08-20T16:11:03.211Z,28.43
2022-08-20T16:13:40.659Z,28.71
2022-08-20T16:16:17.388Z,28.65
2022-08-20T16:18:49.750Z,28.42
2022-08-20T16:21:21.437Z,28.08
2022-08-20T16:23:49.592Z,28.18
2022-08-20T16:26:53.679Z,28.08
2022-08-20T16:29:39.949Z,28.24
2022-08-20T16:32:18.895Z,28.21
2022-08-20T16:34:56.916Z,28.20
2022-08-20T16:37:41.915Z,28.13
2022-08-20T16:40:49.395Z,28.21
2022-08-20T16:43:41.011Z,27.96
2022-08-20T16:46:19.353Z,28.12
2022-08-20T16:48:56.034Z,28.05
2022-08-20T16:51:35.018Z,27.95
2022-08-20T16:54:04.443Z,27.87
2022-08-20T16:56:57.650Z,27.87
2022-08-20T16:59:27.016Z,27.66
2022-08-20T17:02:10.226Z,27.73
2022-08-20T17:04:50.521Z,27.53
2022-08-20T17:07:50.685Z,27.67
2022-08-20T17:10:25.084Z,27.48
2022-08-20T17:13:28.045Z,27.45
2022-08-20T17:16:01.221Z,27.40
2022-08-20T17:18:39.135Z,27.27
2022-08-20T17:21:23.303Z,27.16
2022-08-20T17:24:06.626Z,27.06
2022-08-20T17:26:45.101Z,27.01
2022-08-20T17:29:19.278Z,26.88
2022-08-20T17:31:53.042Z,26.90
2022-08-20T17:34:24.880Z,26.84
2022-08-20T17:37:08.170Z,26.58
2022-08-20T17:39:44.823Z,26.62
2022-08-20T17:42:26.165Z,26.76
2022-08-20T17:45:08.299Z,26.79
2022-08-20T17:47:40.133Z,26.58
2022-08-20T17:50:20.753Z,26.50
2022-08-20T17:52:58.877Z,26.55
2022-08-20T17:55:26.554Z,26.42
2022-08-20T17:58:00.717Z,26.42
2022-08-20T18:00:28.750Z,26.38
2022-08-20T18:03:13.715Z,26.23
2022-08-20T18:05:45.556Z,26.08
2022-08-20T18:09:06.177Z,26.11
2022-08-20T18:11:42.666Z,26.03
2022-08-20T18:15:14.629Z,25.92
2022-08-20T18:18:23.260Z,25.84
2022-08-20T18:21:15.320Z,25.73
2022-08-20T18:23:51.921Z,25.71
2022-08-20T18:26:45.255Z,25.66
2022-08-20T18:29:18.720Z,25.52
2022-08-20T18:32:36.976Z,25.29
2022-08-20T18:35:30.940Z,25.31
2022-08-20T18:37:58.175Z,25.36
2022-08-20T18:40:33.575Z,25.26
2022-08-20T18:43:16.444Z,25.24
2022-08-20T18:45:43.341Z,25.20
2022-08-20T18:48:27.025Z,25.07
2022-08-20T18:50:57.370Z,24.96
2022-08-20T18:53:34.177Z,24.80
2022-08-20T18:56:08.788Z,24.77
2022-08-20T18:58:58.953Z,24.76
2022-08-20T19:01:26.046Z,24.76
2022-08-20T19:03:55.808Z,24.51
2022-08-20T19:07:00.306Z,24.46
2022-08-20T19:10:04.049Z,24.45
2022-08-20T19:13:17.166Z,24.36
2022-08-20T19:15:52.385Z,24.36
2022-08-20T19:18:54.195Z,24.28
2022-08-20T19:21:42.321Z,24.17
2022-08-20T19:24:12.904Z,24.33
2022-08-20T19:27:01.835Z,24.27
2022-08-20T19:29:39.244Z,24.22
2022-08-20T19:32:10.144Z,24.19
2022-08-20T19:34:37.134Z,24.00
2022-08-20T19:37:35.824Z,24.01
2022-08-20T19:40:40.113Z,24.09
2022-08-20T19:43:19.132Z,24.11
2022-08-20T19:45:54.687Z,23.95
2022-08-20T19:48:53.085Z,23.88
2022-08-20T19:52:00.672Z,23.75
2022-08-20T19:54:29.455Z,23.80
2022-08-20T19:57:03.800Z,23.57
2022-08-20T19:59:30.785Z,23.70
2022-08-20T20:02:04.020Z,23.56
2022-08-20T20:04:55.106Z,23.68
2022-08-20T20:08:02.754Z,23.51
2022-08-20T20:10:39.434Z,23.56
2022-08-20T20:13:13.641Z,23.31
2022-08-20T20:15:43.623Z,23.34
2022-08-20T20:18:13.765Z,23.43
2022-08-20T20:20:58.011Z,23.38
2022-08-20T20:23:45.833Z,23.20
2022-08-20T20:26:20.243Z,23.12
2022-08-20T20:29:00.697Z,23.06
2022-08-20T20:31:43.264Z,23.08
2022-08-20T20:34:16.307Z,23.20
2022-08-20T20:36:47.117Z,23.03
2022-08-20T20:40:19.051Z,23.04
2022-08-20T20:43:13.395Z,22.77
2022-08-20T20:45:54.471Z,22.81
2022-08-20T20:48:42.678Z,22.83
2022-08-20T20:51:17.751Z,22.68
2022-08-20T20:53:54.891Z,22.72
2022-08-20T20:56:31.754Z,22.72
2022-08-20T20:59:06.132Z,22.74
2022-08-20T21:01:49.025Z,22.74
2022-08-20T21:04:21.941Z,22.57
2022-08-20T21:06:53.653Z,22.68
2022-08-20T21:09:23.923Z,22.53
2022-08-20T21:11:51.368Z,22.63
2022-08-20T21:14:21.245Z,22.51
2022-08-20T21:16:48.373Z,22.49
2022-08-20T21:19:16.119Z,22.37
2022-08-20T21:21:45.671Z,22.50
2022-08-20T21:24:14.951Z,22.55
2022-08-20T21:26:44.858Z,22.41
2022-08-20T21:29:17.394Z,22.35
2022-08-20T21:31:46.420Z,22.28
2022-08-20T21:34:15.400Z,22.02
2022-08-20T21:36:42.896Z,22.07
2022-08-20T21:39:10.490Z,21.93
2022-08-20T21:41:40.267Z,21.93
2022-08-20T21:44:25.487Z,21.99
2022-08-20T21:46:54.706Z,21.95
2022-08-20T21:49:25.269Z,21.75
2022-08-20T21:51:55.053Z,21.49
2022-08-20T21:54:27.475Z,21.11
2022-08-20T21:57:04.211Z,21.13
2022-08-20T21:59:31.874Z,21.01
2022-08-20T22:02:01.245Z,21.24
2022-08-20T22:04:35.226Z,20.94
2022-08-20T22:07:03.478Z,20.90
2022-08-20T22:09:35.108Z,20.95
2022-08-20T22:12:07.488Z,20.87
2022-08-20T22:14:34.421Z,20.72
2022-08-20T22:17:01.331Z,20.57
2022-08-20T22:19:30.729Z,20.56
2022-08-20T22:24:27.091Z,20.39
2022-08-20T22:26:54.228Z,20.42
2022-08-20T22:29:21.216Z,20.25
2022-08-20T22:31:50.850Z,20.11
2022-08-20T22:34:22.441Z,20.18
2022-08-20T22:36:54.052Z,20.31
2022-08-20T22:39:21.090Z,20.38
2022-08-20T22:41:47.988Z,20.30
2022-08-20T22:44:14.872Z,20.30
2022-08-20T22:46:48.153Z,20.25
2022-08-20T22:49:22.610Z,20.27
2022-08-20T22:51:49.600Z,20.16
2022-08-20T22:54:22.351Z,20.16
2022-08-20T22:56:50.544Z,20.17
2022-08-20T22:59:21.265Z,19.91
2022-08-20T23:01:53.015Z,19.75
2022-08-20T23:04:30.413Z,19.53
2022-08-20T23:07:02.393Z,19.68
2022-08-20T23:09:30.328Z,19.77
2022-08-20T23:11:57.532Z,19.83
2022-08-20T23:14:27.031Z,19.73
2022-08-20T23:17:13.630Z,19.69
2022-08-20T23:19:45.538Z,19.71
2022-08-20T23:22:13.277Z,19.51
2022-08-20T23:24:40.786Z,19.44
2022-08-20T23:27:13.514Z,19.42
2022-08-20T23:29:40.793Z,19.35
2022-08-20T23:32:07.895Z,19.18
2022-08-20T23:34:34.820Z,18.92
2022-08-20T23:37:05.267Z,18.86
2022-08-20T23:39:32.322Z,18.88
2022-08-20T23:42:00.563Z,18.87
2022-08-20T23:44:28.501Z,18.97
2022-08-20T23:46:59.525Z,18.87
2022-08-20T23:49:28.306Z,18.96
2022-08-20T23:52:00.673Z,18.98
2022-08-20T23:54:30.158Z,18.91
2022-08-20T23:56:57.659Z,18.88
2022-08-20T23:59:27.267Z,18.88
